createdAt,value
2022-12-18T00:01:20.396Z,-6.35
2022-12-18T00:03:48.149Z,-6.23
2022-12-18T00:06:15.611Z,-6.17
2022-12-18T00:08:57.992Z,-6.32
2022-12-18T00:11:26.855Z,-6.34
2022-12-18T00:13:55.590Z,-6.13
2022-12-18T00:16:23.979Z,-6.19
2022-12-18T00:18:53.323Z,-6.19
2022-12-18T00:21:21.003Z,-6.28
2022-12-18T00:23:49.845Z,-6.16
2022-12-18T00:26:19.905Z,-6.12
2022-12-18T00:28:47.093Z,-6.09
2022-12-18T00:31:16.502Z,-6.09
2022-12-18T00:33:44.520Z,-6.07
2022-12-18T00:36:18.367Z,-6.07
2022-12-18T00:38:45.723Z,-6.20
2022-12-18T00:41:14.657Z,-6.16
2022-12-18T00:43:41.572Z,-6.12
2022-12-18T00:46:08.500Z,-6.18
2022-12-18T00:48:38.209Z,-6.09
2022-12-18T00:51:04.893Z,-6.07
2022-12-18T00:53:31.549Z,-6.13
2022-12-18T00:55:58.146Z,-6.09
2022-12-18T00:58:24.774Z,-6.20
2022-12-18T01:00:51.414Z,-6.21
2022-12-18T01:03:18.105Z,-6.30
2022-12-18T01:05:44.727Z,-6.22
2022-12-18T01:08:11.375Z,-6.15
2022-12-18T01:10:41.918Z,-6.25
2022-12-18T01:13:09.024Z,-5.99
2022-12-18T01:15:35.956Z,-6.05
2022-12-18T01:18:02.524Z,-6.01
2022-12-18T01:20:29.153Z,-5.93
2022-12-18T01:22:55.815Z,-5.96
2022-12-18T01:25:22.440Z,-6.07
2022-12-18T01:27:48.952Z,-5.94
2022-12-18T01:30:16.006Z,-5.87
2022-12-18T01:32:42.631Z,-5.93
2022-12-18T01:35:09.444Z,-5.97
2022-12-18T01:37:36.053Z,-5.99
2022-12-18T01:40:02.655Z,-6.00
2022-12-18T01:42:29.236Z,-5.98
2022-12-18T01:44:58.692Z,-5.84
2022-12-18T01:48:00.925Z,-5.80
2022-12-18T01:50:35.509Z,-5.73
2022-12-18T01:53:21.851Z,-5.78
2022-12-18T01:55:53.825Z,-5.76
2022-12-18T01:58:28.369Z,-5.75
2022-12-18T02:00:56.211Z,-5.74
2022-12-18T02:03:23.105Z,-5.81
2022-12-18T02:05:58.713Z,-5.72
2022-12-18T02:08:37.501Z,-5.71
2022-12-18T02:11:51.923Z,-5.73
2022-12-18T02:14:27.266Z,-5.77
2022-12-18T02:16:59.715Z,-5.77
2022-12-18T02:19:44.278Z,-5.77
2022-12-18T02:22:35.574Z,-5.84
2022-12-18T02:25:11.442Z,-5.87
2022-12-18T02:27:40.256Z,-5.88
2022-12-18T02:30:09.177Z,-5.90
2022-12-18T02:32:41.113Z,-5.80
2022-12-18T02:35:14.019Z,-5.85
2022-12-18T02:37:43.461Z,-5.77
2022-12-18T02:40:12.305Z,-5.92
2022-12-18T02:42:38.944Z,-5.70
2022-12-18T02:45:06.071Z,-5.80
2022-12-18T02:47:37.979Z,-6.18
2022-12-18T02:50:36.920Z,-5.81
2022-12-18T02:53:23.981Z,-5.70
2022-12-18T02:56:05.274Z,-5.68
2022-12-18T02:59:03.417Z,-5.72
2022-12-18T03:01:41.121Z,-5.71
2022-12-18T03:04:17.950Z,-5.71
2022-12-18T03:06:50.381Z,-5.69
2022-12-18T03:09:25.567Z,-5.68
2022-12-18T03:12:25.091Z,-5.67
2022-12-18T03:15:14.576Z,-5.69
2022-12-18T03:17:49.815Z,-5.78
2022-12-18T03:20:20.647Z,-5.70
2022-12-18T03:22:52.784Z,-5.72
2022-12-18T03:25:20.199Z,-5.79
2022-12-18T03:27:55.268Z,-5.80
2022-12-18T03:30:22.103Z,-5.88
2022-12-18T03:32:51.590Z,-5.79
2022-12-18T03:35:25.347Z,-5.78
2022-12-18T03:37:52.138Z,-5.78
2022-12-18T03:40:21.663Z,-5.80
2022-12-18T03:42:51.655Z,-5.75
2022-12-18T03:45:27.606Z,-5.77
2022-12-18T03:48:09.239Z,-5.74
2022-12-18T03:50:50.857Z,-5.73
2022-12-18T03:53:24.395Z,-5.68
2022-12-18T03:55:52.662Z,-5.71
2022-12-18T03:58:24.364Z,-5.67
2022-12-18T04:00:54.782Z,-5.70
2022-12-18T04:03:26.349Z,-5.73
2022-12-18T04:05:56.355Z,-5.74
2022-12-18T04:08:24.990Z,-5.74
2022-12-18T04:10:51.574Z,-5.72
2022-12-18T04:13:36.256Z,-5.72
2022-12-18T04:16:03.760Z,-5.69
2022-12-18T04:18:31.131Z,-5.73
2022-12-18T04:20:58.100Z,-5.73
2022-12-18T04:23:24.692Z,-5.74
2022-12-18T04:25:51.346Z,-5.80
2022-12-18T04:28:18.242Z,-5.74
2022-12-18T04:30:44.911Z,-5.80
2022-12-18T04:33:13.547Z,-5.75
2022-12-18T04:35:41.216Z,-5.83
2022-12-18T04:38:11.993Z,-5.82
2022-12-18T04:40:39.216Z,-5.80
2022-12-18T04:43:06.655Z,-5.83
2022-12-18T04:45:33.663Z,-5.86
2022-12-18T04:48:01.942Z,-5.82
2022-12-18T04:50:29.177Z,-5.81
2022-12-18T04:52:55.838Z,-5.84
2022-12-18T04:55:22.628Z,-5.86
2022-12-18T04:57:49.251Z,-5.85
2022-12-18T05:00:16.125Z,-5.77
2022-12-18T05:02:42.909Z,-5.76
2022-12-18T05:05:09.750Z,-5.81
2022-12-18T05:07:36.759Z,-5.81
2022-12-18T05:10:05.982Z,-5.83
2022-12-18T05:12:32.983Z,-5.83
2022-12-18T05:14:59.591Z,-5.83
2022-12-18T05:17:26.252Z,-5.84
2022-12-18T05:19:52.892Z,-5.86
2022-12-18T05:22:19.491Z,-5.86
2022-12-18T05:24:46.041Z,-5.89
2022-12-18T05:27:12.601Z,-5.85
2022-12-18T05:29:39.234Z,-5.83
2022-12-18T05:32:05.832Z,-5.97
2022-12-18T05:34:32.349Z,-5.79
2022-12-18T05:36:59.138Z,-5.77
2022-12-18T05:39:25.875Z,-5.76
2022-12-18T05:41:52.533Z,-5.93
2022-12-18T05:44:19.159Z,-5.76
2022-12-18T05:46:45.819Z,-5.80
2022-12-18T05:49:12.604Z,-5.74
2022-12-18T05:51:39.237Z,-5.78
2022-12-18T05:54:06.046Z,-5.77
2022-12-18T05:56:33.246Z,-5.77
2022-12-18T05:58:59.881Z,-5.87
2022-12-18T06:01:27.714Z,-5.81
2022-12-18T06:03:55.155Z,-5.78
2022-12-18T06:06:26.639Z,-5.77
2022-12-18T06:08:54.685Z,-5.77
2022-12-18T06:11:24.374Z,-5.83
2022-12-18T06:13:58.285Z,-5.85
2022-12-18T06:16:25.515Z,-5.85
2022-12-18T06:18:52.196Z,-5.80
2022-12-18T06:21:19.046Z,-5.72
2022-12-18T06:23:45.701Z,-5.75
2022-12-18T06:26:13.353Z,-5.88
2022-12-18T06:28:40.692Z,-5.86
2022-12-18T06:31:09.403Z,-5.97
2022-12-18T06:33:37.353Z,-5.80
2022-12-18T06:36:08.345Z,-5.84
2022-12-18T06:38:36.101Z,-5.88
2022-12-18T06:41:08.958Z,-5.97
2022-12-18T06:43:35.668Z,-5.95
2022-12-18T06:46:03.508Z,-5.96
2022-12-18T06:48:31.837Z,-5.93
2022-12-18T06:50:59.136Z,-5.92
2022-12-18T06:53:25.955Z,-5.77
2022-12-18T06:55:52.681Z,-5.75
2022-12-18T06:58:19.335Z,-5.83
2022-12-18T07:00:46.032Z,-5.97
2022-12-18T07:03:12.738Z,-5.75
2022-12-18T07:05:43.406Z,-5.73
2022-12-18T07:08:10.115Z,-5.74
2022-12-18T07:10:47.507Z,-5.69
2022-12-18T07:13:17.978Z,-5.65
2022-12-18T07:15:44.900Z,-5.73
2022-12-18T07:18:14.874Z,-5.72
2022-12-18T07:20:41.967Z,-5.72
2022-12-18T07:23:21.090Z,-5.70
2022-12-18T07:25:47.694Z,-5.73
2022-12-18T07:28:17.650Z,-5.63
2022-12-18T07:30:44.410Z,-5.76
2022-12-18T07:33:11.099Z,-5.58
2022-12-18T07:35:37.769Z,-5.53
2022-12-18T07:38:06.409Z,-5.52
2022-12-18T07:40:35.091Z,-5.51
2022-12-18T07:43:01.815Z,-5.44
2022-12-18T07:45:32.498Z,-5.39
2022-12-18T07:48:00.103Z,-5.44
2022-12-18T07:50:27.869Z,-5.40
2022-12-18T07:52:57.839Z,-5.41
2022-12-18T07:56:18.383Z,-5.44
2022-12-18T07:58:35.706Z,-5.50
2022-12-18T08:01:10.062Z,-5.44
2022-12-18T08:04:21.376Z,-5.38
2022-12-18T08:06:50.260Z,-5.34
2022-12-18T08:09:19.439Z,-5.38
2022-12-18T08:11:48.762Z,-5.31
2022-12-18T08:14:15.853Z,-5.28
2022-12-18T08:16:43.550Z,-5.41
2022-12-18T08:19:17.717Z,-5.38
2022-12-18T08:21:44.550Z,-5.54
2022-12-18T08:24:12.037Z,-5.32
2022-12-18T08:26:38.738Z,-5.50
2022-12-18T08:29:05.438Z,-5.32
2022-12-18T08:31:34.082Z,-5.15
2022-12-18T08:34:01.207Z,-5.08
2022-12-18T08:36:29.874Z,-4.87
2022-12-18T08:38:58.410Z,-4.88
2022-12-18T08:41:26.021Z,-4.78
2022-12-18T08:44:11.201Z,-4.71
2022-12-18T08:46:41.468Z,-4.64
2022-12-18T08:49:10.679Z,-4.64
2022-12-18T08:51:38.265Z,-4.62
2022-12-18T08:54:06.795Z,-4.68
2022-12-18T08:56:35.358Z,-4.61
2022-12-18T08:59:02.426Z,-4.57
2022-12-18T09:01:31.323Z,-4.42
2022-12-18T09:03:58.661Z,-4.62
2022-12-18T09:06:25.462Z,-4.54
2022-12-18T09:08:52.101Z,-4.46
2022-12-18T09:11:26.536Z,-4.40
2022-12-18T09:13:55.029Z,-4.31
2022-12-18T09:16:27.369Z,-4.37
2022-12-18T09:19:02.532Z,-4.30
2022-12-18T09:21:32.887Z,-4.34
2022-12-18T09:24:03.815Z,-4.30
2022-12-18T09:26:33.748Z,-4.21
2022-12-18T09:29:00.513Z,-4.17
2022-12-18T09:31:27.341Z,-4.26
2022-12-18T09:33:57.260Z,-4.08
2022-12-18T09:36:23.921Z,-4.08
2022-12-18T09:38:50.753Z,-4.12
2022-12-18T09:41:44.215Z,-4.07
2022-12-18T09:44:25.205Z,-4.11
2022-12-18T09:47:08.822Z,-4.23
2022-12-18T09:49:48.840Z,-4.19
2022-12-18T09:52:37.039Z,-4.24
2022-12-18T09:55:14.936Z,-4.32
2022-12-18T09:58:45.653Z,-4.15
2022-12-18T10:01:24.503Z,-4.13
2022-12-18T10:03:53.139Z,-4.12
2022-12-18T10:06:52.104Z,-4.17
2022-12-18T10:09:24.391Z,-4.23
2022-12-18T10:12:09.636Z,-4.20
2022-12-18T10:14:48.577Z,-4.21
2022-12-18T10:17:27.579Z,-4.20
2022-12-18T10:20:00.684Z,-4.24
2022-12-18T10:22:52.639Z,-4.20
2022-12-18T10:25:27.959Z,-4.18
2022-12-18T10:27:59.456Z,-4.18
2022-12-18T10:30:27.157Z,-4.21
2022-12-18T10:32:55.209Z,-4.19
2022-12-18T10:35:27.868Z,-4.21
2022-12-18T10:38:23.726Z,-4.35
2022-12-18T10:40:56.146Z,-4.41
2022-12-18T10:43:26.501Z,-4.37
2022-12-18T10:46:04.932Z,-4.34
2022-12-18T10:48:34.162Z,-4.37
2022-12-18T10:51:10.764Z,-4.32
2022-12-18T10:53:42.940Z,-4.12
2022-12-18T10:56:09.930Z,-4.17
2022-12-18T10:58:39.144Z,-4.06
2022-12-18T11:01:07.523Z,-3.94
2022-12-18T11:03:43.082Z,-4.02
2022-12-18T11:06:12.589Z,-4.02
2022-12-18T11:08:40.401Z,-4.01
2022-12-18T11:11:23.435Z,-4.10
2022-12-18T11:13:56.419Z,-4.30
2022-12-18T11:16:23.246Z,-4.31
2022-12-18T11:18:50.019Z,-4.14
2022-12-18T11:21:17.283Z,-4.07
2022-12-18T11:23:53.172Z,-3.98
2022-12-18T11:26:22.551Z,-4.00
2022-12-18T11:28:53.393Z,-3.87
2022-12-18T11:31:25.401Z,-3.89
2022-12-18T11:36:51.100Z,-4.09
2022-12-18T11:39:43.601Z,-4.16
2022-12-18T11:42:48.705Z,-4.25
2022-12-18T11:45:15.330Z,-4.21
2022-12-18T11:47:58.861Z,-4.30
2022-12-18T11:50:31.037Z,-4.46
2022-12-18T11:53:02.857Z,-4.54
2022-12-18T11:55:47.247Z,-4.64
2022-12-18T11:58:20.179Z,-4.61
2022-12-18T12:01:25.492Z,-4.49
2022-12-18T12:04:10.162Z,-4.65
2022-12-18T12:07:03.414Z,-4.71
2022-12-18T12:09:52.156Z,-4.80
2022-12-18T12:12:50.270Z,-5.03
2022-12-18T12:15:37.027Z,-5.05
2022-12-18T12:18:17.262Z,-4.90
2022-12-18T12:20:54.795Z,-4.81
2022-12-18T12:23:44.886Z,-4.76
2022-12-18T12:26:31.340Z,-4.89
2022-12-18T12:29:10.375Z,-5.05
2022-12-18T12:31:58.809Z,-5.02
2022-12-18T12:34:42.534Z,-4.99
2022-12-18T12:38:06.695Z,-4.95
2022-12-18T12:40:53.450Z,-4.87
2022-12-18T12:43:29.080Z,-4.84
2022-12-18T12:46:03.664Z,-4.87
2022-12-18T12:48:30.854Z,-4.96
2022-12-18T12:50:59.904Z,-4.99
2022-12-18T12:53:34.883Z,-5.00
2022-12-18T12:56:05.258Z,-4.98
2022-12-18T12:58:51.365Z,-5.05
2022-12-18T13:01:24.378Z,-5.11
2022-12-18T13:04:00.293Z,-5.15
2022-12-18T13:06:42.996Z,-5.06
2022-12-18T13:09:11.692Z,-5.03
2022-12-18T13:12:01.000Z,-5.02
2022-12-18T13:14:29.881Z,-5.08
2022-12-18T13:17:17.210Z,-5.16
2022-12-18T13:19:44.453Z,-5.34
2022-12-18T13:22:37.966Z,-5.32
2022-12-18T13:25:30.691Z,-5.34
2022-12-18T13:28:10.341Z,-5.39
2022-12-18T13:30:36.941Z,-5.45
2022-12-18T13:33:15.726Z,-5.55
2022-12-18T13:36:02.510Z,-5.62
2022-12-18T13:38:31.995Z,-5.57
2022-12-18T13:41:19.654Z,-5.62
2022-12-18T13:44:30.599Z,-5.72
2022-12-18T13:46:58.139Z,-5.82
2022-12-18T13:49:42.626Z,-5.86
2022-12-18T13:52:21.841Z,-5.91
2022-12-18T13:54:52.734Z,-5.98
2022-12-18T13:57:31.657Z,-6.11
2022-12-18T13:59:59.675Z,-6.07
2022-12-18T14:02:29.234Z,-6.09
2022-12-18T14:04:56.498Z,-6.17
2022-12-18T14:07:26.287Z,-6.24
2022-12-18T14:10:06.416Z,-6.31
2022-12-18T14:12:57.915Z,-6.53
2022-12-18T14:15:32.966Z,-6.62
2022-12-18T14:18:04.267Z,-6.66
2022-12-18T14:20:33.543Z,-6.79
2022-12-18T14:23:01.343Z,-6.89
2022-12-18T14:25:30.454Z,-7.03
2022-12-18T14:28:09.466Z,-7.12
2022-12-18T14:30:44.627Z,-7.17
2022-12-18T14:33:13.930Z,-7.24
2022-12-18T14:35:43.561Z,-7.29
2022-12-18T14:38:11.617Z,-7.39
2022-12-18T14:40:38.275Z,-7.79
2022-12-18T14:43:04.811Z,-7.74
2022-12-18T14:45:43.837Z,-7.90
2022-12-18T14:48:13.835Z,-7.94
2022-12-18T14:50:42.591Z,-8.03
2022-12-18T14:53:29.154Z,-8.14
2022-12-18T14:55:55.886Z,-8.13
2022-12-18T14:58:23.128Z,-8.18
2022-12-18T15:00:50.009Z,-8.27
2022-12-18T15:03:22.523Z,-8.34
2022-12-18T15:05:50.083Z,-8.27
2022-12-18T15:08:32.183Z,-8.25
2022-12-18T15:10:59.645Z,-8.34
2022-12-18T15:13:26.349Z,-8.31
2022-12-18T15:15:55.765Z,-8.30
2022-12-18T15:18:30.809Z,-8.29
2022-12-18T15:21:08.608Z,-8.34
2022-12-18T15:23:52.467Z,-8.33
2022-12-18T15:26:21.859Z,-8.37
2022-12-18T15:28:53.980Z,-8.42
2022-12-18T15:31:23.868Z,-8.52
2022-12-18T15:33:54.084Z,-8.61
2022-12-18T15:36:32.103Z,-8.74
2022-12-18T15:39:04.206Z,-8.93
2022-12-18T15:41:35.829Z,-8.81
2022-12-18T15:44:03.410Z,-8.87
2022-12-18T15:46:31.994Z,-8.95
2022-12-18T15:49:02.158Z,-8.97
2022-12-18T15:51:33.422Z,-9.03
2022-12-18T15:54:02.983Z,-9.00
2022-12-18T15:56:48.058Z,-9.11
2022-12-18T15:59:19.077Z,-9.20
2022-12-18T16:01:49.157Z,-9.23
2022-12-18T16:04:18.432Z,-9.28
2022-12-18T16:07:13.171Z,-9.34
2022-12-18T16:09:34.322Z,-9.60
2022-12-18T16:12:01.055Z,-9.28
2022-12-18T16:14:30.023Z,-9.35
2022-12-18T16:17:06.679Z,-9.44
2022-12-18T16:19:33.286Z,-9.61
2022-12-18T16:22:00.044Z,-9.66
2022-12-18T16:24:30.851Z,-9.70
2022-12-18T16:27:00.295Z,-9.75
2022-12-18T16:29:29.852Z,-9.80
2022-12-18T16:31:58.451Z,-9.83
2022-12-18T16:34:29.331Z,-9.92
2022-12-18T16:37:06.926Z,-9.95
2022-12-18T16:39:35.580Z,-10.03
2022-12-18T16:42:05.960Z,-10.13
2022-12-18T16:44:33.974Z,-10.09
2022-12-18T16:47:02.897Z,-10.10
2022-12-18T16:49:30.625Z,-10.13
2022-12-18T16:51:57.450Z,-10.12
2022-12-18T16:54:24.254Z,-10.14
2022-12-18T16:56:52.248Z,-10.10
2022-12-18T16:59:19.283Z,-10.16
2022-12-18T17:01:46.958Z,-10.20
2022-12-18T17:04:13.723Z,-10.27
2022-12-18T17:06:42.895Z,-10.36
2022-12-18T17:09:12.950Z,-10.46
2022-12-18T17:11:39.630Z,-10.48
2022-12-18T17:14:07.814Z,-10.55
2022-12-18T17:16:34.537Z,-10.54
2022-12-18T17:19:01.717Z,-10.71
2022-12-18T17:21:30.228Z,-10.77
2022-12-18T17:24:00.601Z,-10.89
2022-12-18T17:26:27.424Z,-10.82
2022-12-18T17:28:56.713Z,-10.85
2022-12-18T17:31:25.429Z,-10.80
2022-12-18T17:33:53.541Z,-10.79
2022-12-18T17:36:20.875Z,-10.80
2022-12-18T17:38:56.200Z,-10.79
2022-12-18T17:41:23.935Z,-10.81
2022-12-18T17:43:55.389Z,-10.83
2022-12-18T17:46:22.480Z,-10.76
2022-12-18T17:48:49.247Z,-10.70
2022-12-18T17:51:18.234Z,-10.62
2022-12-18T17:53:45.258Z,-10.59
2022-12-18T17:56:14.340Z,-10.44
2022-12-18T17:58:42.014Z,-10.33
2022-12-18T18:01:16.080Z,-10.29
2022-12-18T18:03:44.075Z,-10.25
2022-12-18T18:06:11.422Z,-10.15
2022-12-18T18:08:37.972Z,-10.01
2022-12-18T18:11:25.534Z,-9.98
2022-12-18T18:14:01.150Z,-9.88
2022-12-18T18:16:36.774Z,-9.91
2022-12-18T18:19:06.682Z,-9.71
2022-12-18T18:21:34.215Z,-9.59
2022-12-18T18:24:03.189Z,-9.54
2022-12-18T18:26:34.004Z,-9.52
2022-12-18T18:29:03.330Z,-9.49
2022-12-18T18:31:32.778Z,-9.47
2022-12-18T18:34:02.440Z,-9.42
2022-12-18T18:36:29.301Z,-9.42
2022-12-18T18:39:00.334Z,-9.41
2022-12-18T18:41:27.472Z,-9.28
2022-12-18T18:43:58.381Z,-9.26
2022-12-18T18:46:25.804Z,-9.25
2022-12-18T18:48:52.757Z,-9.21
2022-12-18T18:51:21.506Z,-9.14
2022-12-18T18:53:50.643Z,-9.12
2022-12-18T18:59:07.010Z,-8.99
2022-12-18T19:01:34.036Z,-9.02
2022-12-18T19:04:03.666Z,-8.97
2022-12-18T19:06:30.281Z,-8.91
2022-12-18T19:08:58.635Z,-8.84
2022-12-18T19:11:44.530Z,-8.83
2022-12-18T19:14:13.377Z,-8.75
2022-12-18T19:16:40.722Z,-8.78
2022-12-18T19:19:07.939Z,-8.76
2022-12-18T19:21:35.370Z,-8.75
2022-12-18T19:24:02.845Z,-8.80
2022-12-18T19:26:29.773Z,-8.80
2022-12-18T19:29:08.078Z,-8.81
2022-12-18T19:31:36.965Z,-8.77
2022-12-18T19:34:06.803Z,-8.74
2022-12-18T19:36:35.520Z,-8.77
2022-12-18T19:39:02.471Z,-8.84
2022-12-18T19:41:31.607Z,-8.85
2022-12-18T19:43:59.724Z,-8.92
2022-12-18T19:46:26.367Z,-8.93
2022-12-18T19:48:53.752Z,-8.91
2022-12-18T19:51:23.046Z,-8.93
2022-12-18T19:53:53.697Z,-8.91
2022-12-18T19:56:26.432Z,-8.93
2022-12-18T19:58:54.493Z,-9.00
2022-12-18T20:01:24.020Z,-9.05
2022-12-18T20:03:51.601Z,-9.07
2022-12-18T20:06:30.905Z,-9.07
2022-12-18T20:09:01.168Z,-9.05
2022-12-18T20:11:29.855Z,-9.06
2022-12-18T20:13:57.455Z,-9.08
2022-12-18T20:16:41.859Z,-9.09
2022-12-18T20:19:10.792Z,-9.18
2022-12-18T20:21:37.519Z,-9.19
2022-12-18T20:24:04.359Z,-9.25
2022-12-18T20:26:31.193Z,-9.32
2022-12-18T20:28:57.859Z,-9.33
2022-12-18T20:31:24.721Z,-9.34
2022-12-18T20:33:52.206Z,-9.35
2022-12-18T20:36:22.465Z,-9.39
2022-12-18T20:38:57.280Z,-9.31
2022-12-18T20:41:26.300Z,-9.27
2022-12-18T20:43:58.280Z,-9.31
2022-12-18T20:46:25.120Z,-9.28
2022-12-18T20:48:51.936Z,-9.32
2022-12-18T20:51:21.444Z,-9.29
2022-12-18T20:53:48.512Z,-9.29
2022-12-18T20:56:21.595Z,-9.26
2022-12-18T20:58:49.863Z,-9.24
2022-12-18T21:01:20.139Z,-9.32
2022-12-18T21:03:47.487Z,-9.32
2022-12-18T21:06:16.527Z,-9.32
2022-12-18T21:08:44.096Z,-9.34
2022-12-18T21:11:38.869Z,-9.37
2022-12-18T21:14:09.553Z,-9.41
2022-12-18T21:16:37.655Z,-9.46
2022-12-18T21:19:04.249Z,-9.49
2022-12-18T21:21:36.537Z,-9.51
2022-12-18T21:24:06.575Z,-9.55
2022-12-18T21:26:33.768Z,-9.56
2022-12-18T21:29:03.523Z,-9.72
2022-12-18T21:31:33.351Z,-9.67
2022-12-18T21:34:02.208Z,-9.78
2022-12-18T21:36:31.093Z,-9.81
2022-12-18T21:38:58.791Z,-9.88
2022-12-18T21:41:44.865Z,-9.90
2022-12-18T21:44:17.080Z,-9.96
2022-12-18T21:46:51.364Z,-10.00
2022-12-18T21:49:21.744Z,-10.03
2022-12-18T21:51:54.788Z,-10.02
2022-12-18T21:54:22.000Z,-10.03
2022-12-18T21:56:54.410Z,-10.06
2022-12-18T21:59:29.771Z,-10.01
2022-12-18T22:01:59.352Z,-10.01
2022-12-18T22:04:27.085Z,-10.05
2022-12-18T22:06:54.284Z,-9.94
2022-12-18T22:09:23.434Z,-9.92
2022-12-18T22:11:50.953Z,-9.95
2022-12-18T22:14:18.046Z,-9.96
2022-12-18T22:16:44.754Z,-9.92
2022-12-18T22:19:12.532Z,-9.91
2022-12-18T22:21:43.933Z,-9.96
2022-12-18T22:24:19.565Z,-9.94
2022-12-18T22:26:46.536Z,-9.92
2022-12-18T22:29:40.135Z,-9.96
2022-12-18T22:32:09.019Z,-9.99
2022-12-18T22:34:39.425Z,-10.01
2022-12-18T22:37:06.167Z,-10.04
2022-12-18T22:39:33.256Z,-10.12
2022-12-18T22:42:00.346Z,-10.13
2022-12-18T22:44:27.679Z,-10.16
2022-12-18T22:47:06.353Z,-10.20
2022-12-18T22:49:35.547Z,-10.14
2022-12-18T22:52:04.016Z,-10.13
2022-12-18T22:54:30.728Z,-10.12
2022-12-18T22:56:57.765Z,-10.11
2022-12-18T22:59:24.796Z,-10.19
2022-12-18T23:01:57.112Z,-10.16
2022-12-18T23:04:35.859Z,-10.18
2022-12-18T23:07:05.237Z,-10.19
2022-12-18T23:09:32.833Z,-10.26
2022-12-18T23:11:59.689Z,-10.29
2022-12-18T23:14:26.547Z,-10.32
2022-12-18T23:16:53.356Z,-10.36
2022-12-18T23:19:21.064Z,-10.38
2022-12-18T23:21:50.030Z,-10.41
2022-12-18T23:24:16.596Z,-10.45
2022-12-18T23:26:43.391Z,-10.49
2022-12-18T23:29:10.991Z,-10.49
2022-12-18T23:31:39.583Z,-10.51
2022-12-18T23:34:06.927Z,-10.54
2022-12-18T23:36:42.038Z,-10.62
2022-12-18T23:39:17.959Z,-10.66
2022-12-18T23:41:56.339Z,-10.70
2022-12-18T23:44:24.003Z,-10.73
2022-12-18T23:46:50.745Z,-10.75
2022-12-18T23:49:19.360Z,-10.75
2022-12-18T23:51:45.933Z,-10.73
2022-12-18T23:54:12.594Z,-10.75
2022-12-18T23:56:39.154Z,-10.72
2022-12-18T23:59:05.710Z,-10.71
